Observation data for Lamesa on 11/08/2019      Previous  Date       Current Mesonet Observations  Soil Data  Daily Summary Page  Observations in Plain Language
KLES 080600Z 01007KT 02/02 A3046 RMK A01 T00220018  RH  098%=      5-min Rain = 0
KLES 080605Z 02009KT 02/02 A3046 RMK A01 T00210017  RH  098%=      5-min Rain = 0
KLES 080610Z 02007KT 02/02 A3046 RMK A01 T00200016  RH  098%=      5-min Rain = 0
KLES 080615Z 03007KT 02/02 A3045 RMK A01 T00190015  RH  098%=      5-min Rain = 0
KLES 080620Z 03006KT 02/02 A3045 RMK A01 T00190015  RH  099%=      5-min Rain = 0
KLES 080625Z 03005KT 02/02 A3045 RMK A01 T00190015  RH  099%=      5-min Rain = 0.01
KLES 080630Z 03006KT 02/02 A3045 RMK A01 T00200016  RH  099%=      5-min Rain = 0
KLES 080635Z 02007KT 02/02 A3045 RMK A01 T00190015  RH  099%=      5-min Rain = 0
KLES 080640Z 01007KT 02/02 A3045 RMK A01 T00190015  RH  099%=      5-min Rain = 0
KLES 080645Z 02006KT 02/02 A3045 RMK A01 T00190015  RH  099%=      5-min Rain = 0
KLES 080650Z 01007KT 02/02 A3045 RMK A01 T00190015  RH  099%=      5-min Rain = 0
KLES 080655Z 01007KT 02/02 A3045 RMK A01 T00190015  RH  099%=      5-min Rain = 0
KLES 080700Z 02006KT 02/02 A3045 RMK A01 T00190015  RH  099%=      5-min Rain = 0
KLES 080705Z 01007KT 02/02 A3045 RMK A01 T00190015  RH  099%=      5-min Rain = 0
KLES 080710Z 01007KT 02/02 A3044 RMK A01 T00190015  RH  099%=      5-min Rain = 0
KLES 080715Z 02007KT 02/02 A3044 RMK A01 T00190015  RH  099%=      5-min Rain = 0
KLES 080720Z 01007KT 02/02 A3044 RMK A01 T00190015  RH  099%=      5-min Rain = 0
KLES 080725Z 36007KT 02/01 A3044 RMK A01 T00180014  RH  099%=      5-min Rain = 0
KLES 080730Z 00008KT 02/01 A3044 RMK A01 T00180014  RH  099%=      5-min Rain = 0
KLES 080735Z 00008KT 02/01 A3044 RMK A01 T00170014  RH  099%=      5-min Rain = 0
KLES 080740Z 00007KT 02/01 A3044 RMK A01 T00180014  RH  099%=      5-min Rain = 0
KLES 080745Z 00006KT 02/01 A3044 RMK A01 T00180014  RH  099%=      5-min Rain = 0
KLES 080750Z 01006KT 02/01 A3044 RMK A01 T00180014  RH  099%=      5-min Rain = 0
KLES 080755Z 02007KT 02/01 A3044 RMK A01 T00170013  RH  099%=      5-min Rain = 0
KLES 080800Z 03007KT 02/01 A3044 RMK A01 T00150010  RH  098%=      5-min Rain = 0
KLES 080805Z 02008KT 01/01 A3044 RMK A01 T00130010  RH  099%=      5-min Rain = 0
KLES 080810Z 03005KT 01/01 A3044 RMK A01 T00130009  RH  099%=      5-min Rain = 0
KLES 080815Z 03006KT 01/01 A3044 RMK A01 T00120008  RH  099%=      5-min Rain = 0
KLES 080820Z 03005KT 01/01 A3044 RMK A01 T00110007  RH  099%=      5-min Rain = 0
KLES 080825Z 04005KT 01/01 A3044 RMK A01 T00110007  RH  099%=      5-min Rain = 0
KLES 080830Z 04004KT 01/01 A3044 RMK A01 T00110008  RH  099%=      5-min Rain = 0
KLES 080835Z 03004KT 01/01 A3044 RMK A01 T00120008  RH  099%=      5-min Rain = 0
KLES 080840Z 02004KT 01/01 A3044 RMK A01 T00130009  RH  099%=      5-min Rain = 0
KLES 080845Z 02004KT 01/01 A3044 RMK A01 T00130010  RH  099%=      5-min Rain = 0
KLES 080850Z 02003KT 01/01 A3044 RMK A01 T00130010  RH  099%=      5-min Rain = 0
KLES 080855Z 01003KT 01/01 A3043 RMK A01 T00140010  RH  099%=      5-min Rain = 0
KLES 080900Z 01003KT 01/01 A3043 RMK A01 T00140011  RH  099%=      5-min Rain = 0
KLES 080905Z 01003KT 02/01 A3043 RMK A01 T00150012  RH  099%=      5-min Rain = 0
KLES 080910Z 02004KT 02/01 A3043 RMK A01 T00150011  RH  099%=      5-min Rain = 0
KLES 080915Z 02004KT 02/01 A3043 RMK A01 T00150012  RH  099%=      5-min Rain = 0
KLES 080920Z 02004KT 02/01 A3043 RMK A01 T00160012  RH  099%=      5-min Rain = 0
KLES 080925Z 02005KT 02/01 A3043 RMK A01 T00150012  RH  099%=      5-min Rain = 0
KLES 080930Z 02005KT 02/01 A3043 RMK A01 T00160012  RH  099%=      5-min Rain = 0
KLES 080935Z 01004KT 02/01 A3042 RMK A01 T00160012  RH  099%=      5-min Rain = 0
KLES 080940Z 01004KT 02/01 A3042 RMK A01 T00160013  RH  099%=      5-min Rain = 0
KLES 080945Z 00005KT 02/01 A3042 RMK A01 T00170013  RH  099%=      5-min Rain = 0
KLES 080950Z 00004KT 02/01 A3042 RMK A01 T00170013  RH  099%=      5-min Rain = 0
KLES 080955Z 00005KT 02/01 A3042 RMK A01 T00170014  RH  099%=      5-min Rain = 0
KLES 081000Z 36005KT 02/01 A3042 RMK A01 T00170013  RH  099%=      5-min Rain = 0
KLES 081005Z 36005KT 02/01 A3042 RMK A01 T00170014  RH  099%=      5-min Rain = 0
KLES 081010Z 35004KT 02/01 A3042 RMK A01 T00170014  RH  099%=      5-min Rain = 0
KLES 081015Z 35003KT 02/01 A3043 RMK A01 T00180014  RH  099%=      5-min Rain = 0
KLES 081020Z 35005KT 02/02 A3043 RMK A01 T00190015  RH  099%=      5-min Rain = 0
KLES 081025Z 36005KT 02/02 A3043 RMK A01 T00180015  RH  099%=      5-min Rain = 0
KLES 081030Z 35005KT 02/01 A3043 RMK A01 T00180014  RH  099%=      5-min Rain = 0
KLES 081035Z 36004KT 02/02 A3043 RMK A01 T00180015  RH  099%=      5-min Rain = 0
KLES 081040Z 36005KT 02/02 A3043 RMK A01 T00190015  RH  099%=      5-min Rain = 0
KLES 081045Z 01005KT 02/01 A3043 RMK A01 T00180014  RH  099%=      5-min Rain = 0
KLES 081050Z 01005KT 02/02 A3042 RMK A01 T00180015  RH  099%=      5-min Rain = 0
KLES 081055Z 02006KT 02/01 A3042 RMK A01 T00180014  RH  099%=      5-min Rain = 0
KLES 081100Z 02006KT 02/02 A3042 RMK A01 T00180015  RH  099%=      5-min Rain = 0
KLES 081105Z 02005KT 02/02 A3041 RMK A01 T00180015  RH  099%=      5-min Rain = 0
KLES 081110Z 02005KT 02/01 A3041 RMK A01 T00180014  RH  099%=      5-min Rain = 0
KLES 081115Z 02006KT 02/01 A3041 RMK A01 T00180014  RH  099%=      5-min Rain = 0
KLES 081120Z 02004KT 02/01 A3041 RMK A01 T00180014  RH  099%=      5-min Rain = 0
KLES 081125Z 02004KT 02/02 A3041 RMK A01 T00180015  RH  099%=      5-min Rain = 0
KLES 081130Z 01005KT 02/01 A3041 RMK A01 T00180014  RH  099%=      5-min Rain = 0
KLES 081135Z 00005KT 02/02 A3041 RMK A01 T00180015  RH  099%=      5-min Rain = 0
KLES 081140Z 36006KT 02/02 A3041 RMK A01 T00180015  RH  099%=      5-min Rain = 0
KLES 081145Z 36005KT 02/02 A3041 RMK A01 T00180015  RH  099%=      5-min Rain = 0
KLES 081150Z 36005KT 02/02 A3041 RMK A01 T00180015  RH  099%=      5-min Rain = 0
KLES 081155Z 35006KT 02/02 A3042 RMK A01 T00190015  RH  099%=      5-min Rain = 0
KLES 081200Z 36006KT 02/02 A3042 RMK A01 T00190016  RH  099%=      5-min Rain = 0
KLES 081205Z 36006KT 02/02 A3042 RMK A01 T00190015  RH  099%=      5-min Rain = 0
KLES 081210Z 35005KT 02/02 A3042 RMK A01 T00190015  RH  099%=      5-min Rain = 0
KLES 081215Z 01005KT 02/02 A3042 RMK A01 T00190015  RH  099%=      5-min Rain = 0
KLES 081220Z 01004KT 02/02 A3042 RMK A01 T00190016  RH  099%=      5-min Rain = 0
KLES 081225Z 02004KT 02/02 A3042 RMK A01 T00200016  RH  099%=      5-min Rain = 0
KLES 081230Z 01004KT 02/02 A3042 RMK A01 T00200016  RH  099%=      5-min Rain = 0
KLES 081235Z 01004KT 02/02 A3041 RMK A01 T00200016  RH  099%=      5-min Rain = 0
KLES 081240Z 02004KT 02/02 A3042 RMK A01 T00200016  RH  099%=      5-min Rain = 0
KLES 081245Z 00004KT 02/02 A3042 RMK A01 T00200016  RH  099%=      5-min Rain = 0
KLES 081250Z 03003KT 02/02 A3041 RMK A01 T00200016  RH  099%=      5-min Rain = 0
KLES 081255Z 04003KT 02/02 A3041 RMK A01 T00200016  RH  099%=      5-min Rain = 0
KLES 081300Z 03003KT 02/02 A3041 RMK A01 T00210017  RH  099%=      5-min Rain = 0
KLES 081305Z 04003KT 02/02 A3041 RMK A01 T00210017  RH  099%=      5-min Rain = 0
KLES 081310Z 03004KT 02/02 A3041 RMK A01 T00210017  RH  099%=      5-min Rain = 0
KLES 081315Z 03003KT 02/02 A3041 RMK A01 T00210017  RH  099%=      5-min Rain = 0
KLES 081320Z 03003KT 02/02 A3041 RMK A01 T00210017  RH  099%=      5-min Rain = 0
KLES 081325Z 04002KT 02/02 A3041 RMK A01 T00220018  RH  099%=      5-min Rain = 0
KLES 081330Z 03003KT 02/02 A3041 RMK A01 T00220018  RH  098%=      5-min Rain = 0
KLES 081335Z 02002KT 02/02 A3041 RMK A01 T00230018  RH  098%=      5-min Rain = 0
KLES 081340Z 01001KT 02/02 A3041 RMK A01 T00230019  RH  099%=      5-min Rain = 0
KLES 081345Z 01001KT 02/02 A3042 RMK A01 T00240020  RH  099%=      5-min Rain = 0
KLES 081350Z 03001KT 02/02 A3042 RMK A01 T00240019  RH  098%=      5-min Rain = 0
KLES 081355Z 02001KT 02/02 A3042 RMK A01 T00240019  RH  098%=      5-min Rain = 0
KLES 081400Z 02001KT 02/02 A3042 RMK A01 T00240019  RH  098%=      5-min Rain = 0
KLES 081405Z 04001KT 02/02 A3042 RMK A01 T00240020  RH  098%=      5-min Rain = 0
KLES 081410Z 06000KT 02/02 A3042 RMK A01 T00240020  RH  098%=      5-min Rain = 0
KLES 081415Z 10001KT 03/02 A3042 RMK A01 T00250020  RH  098%=      5-min Rain = 0
KLES 081420Z 11000KT 03/02 A3042 RMK A01 T00250021  RH  098%=      5-min Rain = 0
KLES 081425Z 36000KT 03/02 A3043 RMK A01 T00260021  RH  098%=      5-min Rain = 0
KLES 081430Z 34001KT 03/02 A3043 RMK A01 T00270022  RH  098%=      5-min Rain = 0
KLES 081435Z 36001KT 03/02 A3044 RMK A01 T00280023  RH  098%=      5-min Rain = 0
KLES 081440Z 35000KT 03/02 A3043 RMK A01 T00280023  RH  098%=      5-min Rain = 0
KLES 081445Z 34001KT 03/02 A3044 RMK A01 T00280024  RH  098%=      5-min Rain = 0
KLES 081450Z 31000KT 03/02 A3043 RMK A01 T00280023  RH  098%=      5-min Rain = 0
KLES 081455Z 32001KT 03/02 A3044 RMK A01 T00280023  RH  098%=      5-min Rain = 0
KLES 081500Z 32001KT 03/02 A3044 RMK A01 T00290024  RH  098%=      5-min Rain = 0
KLES 081505Z 34001KT 03/03 A3044 RMK A01 T00300025  RH  098%=      5-min Rain = 0
KLES 081510Z 34000KT 03/03 A3044 RMK A01 T00300025  RH  098%=      5-min Rain = 0
KLES 081515Z 28000KT 03/03 A3044 RMK A01 T00300025  RH  098%=      5-min Rain = 0
KLES 081520Z 00000KT 03/03 A3044 RMK A01 T00310026  RH  098%=      5-min Rain = 0
KLES 081525Z 27000KT 03/03 A3044 RMK A01 T00320026  RH  098%=      5-min Rain = 0
KLES 081530Z 26000KT 03/03 A3044 RMK A01 T00320027  RH  098%=      5-min Rain = 0
KLES 081535Z 27001KT 03/03 A3044 RMK A01 T00320027  RH  098%=      5-min Rain = 0
KLES 081540Z 29001KT 03/03 A3044 RMK A01 T00330027  RH  098%=      5-min Rain = 0
KLES 081545Z 29002KT 03/03 A3044 RMK A01 T00330028  RH  098%=      5-min Rain = 0
KLES 081550Z 30003KT 03/03 A3044 RMK A01 T00340029  RH  098%=      5-min Rain = 0
KLES 081555Z 32003KT 04/03 A3044 RMK A01 T00360031  RH  098%=      5-min Rain = 0
KLES 081600Z 33003KT 04/03 A3044 RMK A01 T00370031  RH  098%=      5-min Rain = 0
KLES 081605Z 31003KT 04/03 A3044 RMK A01 T00380032  RH  097%=      5-min Rain = 0
KLES 081610Z 31004KT 04/03 A3044 RMK A01 T00380032  RH  097%=      5-min Rain = 0
KLES 081615Z 33004KT 04/03 A3044 RMK A01 T00390033  RH  097%=      5-min Rain = 0
KLES 081620Z 34004KT 04/03 A3044 RMK A01 T00400033  RH  097%=      5-min Rain = 0
KLES 081625Z 34003KT 04/03 A3044 RMK A01 T00400033  RH  097%=      5-min Rain = 0
KLES 081630Z 01003KT 04/03 A3044 RMK A01 T00400033  RH  097%=      5-min Rain = 0
KLES 081635Z 34004KT 04/03 A3044 RMK A01 T00410034  RH  097%=      5-min Rain = 0
KLES 081640Z 32002KT 04/04 A3044 RMK A01 T00420035  RH  097%=      5-min Rain = 0
KLES 081645Z 34003KT 04/04 A3043 RMK A01 T00440036  RH  097%=      5-min Rain = 0
KLES 081650Z 36003KT 04/04 A3043 RMK A01 T00440036  RH  097%=      5-min Rain = 0
KLES 081655Z 34003KT 05/04 A3043 RMK A01 T00450037  RH  097%=      5-min Rain = 0
KLES 081700Z 33003KT 05/04 A3043 RMK A01 T00460038  RH  096%=      5-min Rain = 0
KLES 081705Z 00002KT 05/04 A3043 RMK A01 T00470039  RH  096%=      5-min Rain = 0
KLES 081710Z 35004KT 05/04 A3043 RMK A01 T00460038  RH  096%=      5-min Rain = 0
KLES 081715Z 01002KT 05/04 A3043 RMK A01 T00470038  RH  096%=      5-min Rain = 0
KLES 081720Z 35001KT 05/04 A3042 RMK A01 T00480039  RH  096%=      5-min Rain = 0
KLES 081725Z 00001KT 05/04 A3042 RMK A01 T00480038  RH  095%=      5-min Rain = 0
KLES 081730Z 02002KT 05/04 A3042 RMK A01 T00470038  RH  095%=      5-min Rain = 0
KLES 081735Z 01001KT 05/04 A3042 RMK A01 T00490039  RH  095%=      5-min Rain = 0
KLES 081740Z 35002KT 05/04 A3042 RMK A01 T00510041  RH  095%=      5-min Rain = 0
KLES 081745Z 36002KT 05/04 A3041 RMK A01 T00520041  RH  095%=      5-min Rain = 0
KLES 081750Z 02004KT 05/04 A3041 RMK A01 T00520040  RH  094%=      5-min Rain = 0
KLES 081755Z 02001KT 05/04 A3041 RMK A01 T00530041  RH  094%=      5-min Rain = 0
KLES 081800Z 34001KT 06/04 A304 RMK A01 T00550043  RH  094%=      5-min Rain = 0
KLES 081805Z 33001KT 06/05 A304 RMK A01 T00570045  RH  094%=      5-min Rain = 0
KLES 081810Z 24002KT 06/04 A304 RMK A01 T00570043  RH  092%=      5-min Rain = 0
KLES 081815Z 24001KT 06/04 A304 RMK A01 T00570043  RH  093%=      5-min Rain = 0
KLES 081820Z 25002KT 06/04 A3039 RMK A01 T00580043  RH  092%=      5-min Rain = 0
KLES 081825Z 23001KT 06/04 A3038 RMK A01 T00590044  RH  092%=      5-min Rain = 0
KLES 081830Z 23002KT 06/05 A3038 RMK A01 T00600045  RH  092%=      5-min Rain = 0
KLES 081835Z 18001KT 06/05 A3038 RMK A01 T00640048  RH  092%=      5-min Rain = 0
KLES 081840Z 22003KT 07/05 A3037 RMK A01 T00670050  RH  091%=      5-min Rain = 0
KLES 081845Z 23001KT 07/05 A3037 RMK A01 T00670048  RH  090%=      5-min Rain = 0
KLES 081850Z 23001KT 07/05 A3037 RMK A01 T00690051  RH  090%=      5-min Rain = 0
KLES 081855Z 24003KT 07/05 A3036 RMK A01 T00720051  RH  089%=      5-min Rain = 0
KLES 081900Z 24003KT 07/05 A3036 RMK A01 T00710049  RH  088%=      5-min Rain = 0
KLES 081905Z 27003KT 07/05 A3036 RMK A01 T00720050  RH  088%=      5-min Rain = 0
KLES 081910Z 24002KT 07/05 A3035 RMK A01 T00720050  RH  087%=      5-min Rain = 0
KLES 081915Z 25002KT 07/05 A3035 RMK A01 T00730050  RH  087%=      5-min Rain = 0
KLES 081920Z 22004KT 08/05 A3034 RMK A01 T00760052  RH  087%=      5-min Rain = 0
KLES 081925Z 23005KT 08/05 A3034 RMK A01 T00750050  RH  086%=      5-min Rain = 0
KLES 081930Z 26004KT 08/05 A3034 RMK A01 T00750051  RH  086%=      5-min Rain = 0
KLES 081935Z 23003KT 08/05 A3034 RMK A01 T00770053  RH  087%=      5-min Rain = 0
KLES 081940Z 24003KT 08/05 A3034 RMK A01 T00790053  RH  085%=      5-min Rain = 0
KLES 081945Z 25004KT 08/05 A3034 RMK A01 T00800054  RH  086%=      5-min Rain = 0
KLES 081950Z 23004KT 08/05 A3034 RMK A01 T00810054  RH  085%=      5-min Rain = 0
KLES 081955Z 24004KT 08/05 A3034 RMK A01 T00810054  RH  085%=      5-min Rain = 0
KLES 082000Z 28003KT 08/06 A3033 RMK A01 T00820055  RH  085%=      5-min Rain = 0
KLES 082005Z 24004G9KT 08/06 A3033 RMK A01 T00830056  RH  085%=      5-min Rain = 0
KLES 082010Z 25005KT 09/06 A3033 RMK A01 T00850057  RH  085%=      5-min Rain = 0
KLES 082015Z 22004G9KT 09/06 A3032 RMK A01 T00870059  RH  085%=      5-min Rain = 0
KLES 082020Z 23006KT 09/06 A3032 RMK A01 T00900060  RH  084%=      5-min Rain = 0
KLES 082025Z 23005KT 09/06 A3032 RMK A01 T00900062  RH  084%=      5-min Rain = 0
KLES 082030Z 23005KT 09/06 A3032 RMK A01 T00930061  RH  083%=      5-min Rain = 0
KLES 082035Z 23005KT 09/06 A3032 RMK A01 T00910060  RH  083%=      5-min Rain = 0
KLES 082040Z 24004KT 09/06 A3032 RMK A01 T00930062  RH  083%=      5-min Rain = 0
KLES 082045Z 25004KT 09/06 A3032 RMK A01 T00930062  RH  083%=      5-min Rain = 0
KLES 082050Z 27004KT 09/06 A3031 RMK A01 T00920061  RH  083%=      5-min Rain = 0
KLES 082055Z 27003KT 09/06 A3031 RMK A01 T00920062  RH  084%=      5-min Rain = 0
KLES 082100Z 25002KT 09/06 A3031 RMK A01 T00920062  RH  083%=      5-min Rain = 0
KLES 082105Z 27002KT 09/06 A3031 RMK A01 T00930063  RH  083%=      5-min Rain = 0
KLES 082110Z 29003KT 09/06 A3032 RMK A01 T00940064  RH  084%=      5-min Rain = 0
KLES 082115Z 27003KT 10/07 A3032 RMK A01 T00960065  RH  083%=      5-min Rain = 0
KLES 082120Z 27004KT 10/07 A3031 RMK A01 T00960065  RH  083%=      5-min Rain = 0
KLES 082125Z 25004KT 10/07 A3031 RMK A01 T01000068  RH  082%=      5-min Rain = 0
KLES 082130Z 24005KT 10/07 A3031 RMK A01 T01000065  RH  081%=      5-min Rain = 0
KLES 082135Z 23003KT 10/07 A3031 RMK A01 T01010067  RH  082%=      5-min Rain = 0
KLES 082140Z 21004KT 10/07 A3031 RMK A01 T01040069  RH  081%=      5-min Rain = 0
KLES 082145Z 22005KT 11/07 A3031 RMK A01 T01070069  RH  080%=      5-min Rain = 0
KLES 082150Z 23003KT 11/07 A3031 RMK A01 T01050068  RH  080%=      5-min Rain = 0
KLES 082155Z 26002KT 11/07 A3031 RMK A01 T01050067  RH  080%=      5-min Rain = 0
KLES 082200Z 28004KT 10/07 A3031 RMK A01 T01040067  RH  080%=      5-min Rain = 0
KLES 082205Z 25003KT 10/07 A3031 RMK A01 T01040068  RH  080%=      5-min Rain = 0
KLES 082210Z 25003KT 11/07 A3031 RMK A01 T01050067  RH  080%=      5-min Rain = 0
KLES 082215Z 23004KT 11/07 A3031 RMK A01 T01050068  RH  080%=      5-min Rain = 0
KLES 082220Z 23004KT 11/07 A303 RMK A01 T01050068  RH  079%=      5-min Rain = 0
KLES 082225Z 23004KT 11/07 A303 RMK A01 T01050068  RH  080%=      5-min Rain = 0
KLES 082230Z 21003KT 11/07 A303 RMK A01 T01050069  RH  080%=      5-min Rain = 0
KLES 082235Z 23005KT 11/07 A303 RMK A01 T01060069  RH  080%=      5-min Rain = 0
KLES 082240Z 23003KT 11/07 A303 RMK A01 T01060070  RH  080%=      5-min Rain = 0
KLES 082245Z 21004KT 11/07 A3031 RMK A01 T01060070  RH  080%=      5-min Rain = 0
KLES 082250Z 19004KT 11/07 A3031 RMK A01 T01070072  RH  081%=      5-min Rain = 0
KLES 082255Z 20004KT 11/07 A3031 RMK A01 T01080071  RH  080%=      5-min Rain = 0
KLES 082300Z 22004KT 11/07 A3031 RMK A01 T01060070  RH  080%=      5-min Rain = 0
KLES 082305Z 19003KT 10/07 A3031 RMK A01 T01040068  RH  080%=      5-min Rain = 0
KLES 082310Z 17003KT 10/07 A303 RMK A01 T01030068  RH  081%=      5-min Rain = 0
KLES 082315Z 18004KT 10/07 A303 RMK A01 T01020068  RH  082%=      5-min Rain = 0
KLES 082320Z 18004KT 10/07 A303 RMK A01 T01010069  RH  083%=      5-min Rain = 0
KLES 082325Z 17004KT 10/07 A3031 RMK A01 T01000069  RH  083%=      5-min Rain = 0
KLES 082330Z 16004KT 10/07 A3031 RMK A01 T00980068  RH  084%=      5-min Rain = 0
KLES 082335Z 17004KT 10/07 A3031 RMK A01 T00960067  RH  084%=      5-min Rain = 0
KLES 082340Z 17003KT 09/07 A3031 RMK A01 T00940067  RH  085%=      5-min Rain = 0
KLES 082345Z 17003KT 09/07 A3031 RMK A01 T00930067  RH  086%=      5-min Rain = 0
KLES 082350Z 16003KT 09/07 A3031 RMK A01 T00910066  RH  086%=      5-min Rain = 0
KLES 082355Z 16004KT 09/07 A3031 RMK A01 T00890065  RH  087%=      5-min Rain = 0
KLES 090000Z 16004KT 09/06 A3031 RMK A01 T00880064  RH  087%=      5-min Rain = 0
KLES 090005Z 15004KT 09/06 A3031 RMK A01 T00870064  RH  088%=      5-min Rain = 0
KLES 090010Z 15004KT 09/06 A3031 RMK A01 T00860064  RH  088%=      5-min Rain = 0
KLES 090015Z 15004KT 09/06 A3031 RMK A01 T00850064  RH  089%=      5-min Rain = 0
KLES 090020Z 14004KT 08/06 A3031 RMK A01 T00840064  RH  089%=      5-min Rain = 0
KLES 090025Z 14004KT 08/06 A3031 RMK A01 T00840064  RH  090%=      5-min Rain = 0
KLES 090030Z 14004KT 08/06 A3031 RMK A01 T00830064  RH  090%=      5-min Rain = 0
KLES 090035Z 15004KT 08/06 A3031 RMK A01 T00820063  RH  090%=      5-min Rain = 0
KLES 090040Z 15004KT 08/06 A3031 RMK A01 T00810063  RH  091%=      5-min Rain = 0
KLES 090045Z 15004KT 08/06 A3031 RMK A01 T00800063  RH  091%=      5-min Rain = 0
KLES 090050Z 15004KT 08/06 A3031 RMK A01 T00800063  RH  091%=      5-min Rain = 0
KLES 090055Z 16004KT 08/06 A3031 RMK A01 T00790062  RH  092%=      5-min Rain = 0
KLES 090100Z 16004KT 08/06 A3031 RMK A01 T00780062  RH  092%=      5-min Rain = 0
KLES 090105Z 15004KT 08/06 A3031 RMK A01 T00770061  RH  092%=      5-min Rain = 0
KLES 090110Z 16004KT 08/06 A3031 RMK A01 T00750060  RH  092%=      5-min Rain = 0
KLES 090115Z 16004KT 07/06 A3031 RMK A01 T00740059  RH  092%=      5-min Rain = 0
KLES 090120Z 16004KT 07/06 A3031 RMK A01 T00730059  RH  093%=      5-min Rain = 0
KLES 090125Z 17004KT 07/06 A3031 RMK A01 T00720058  RH  093%=      5-min Rain = 0
KLES 090130Z 17004KT 07/06 A3031 RMK A01 T00710058  RH  093%=      5-min Rain = 0
KLES 090135Z 18004KT 07/06 A3032 RMK A01 T00700057  RH  093%=      5-min Rain = 0
KLES 090140Z 17004KT 07/06 A3032 RMK A01 T00690056  RH  093%=      5-min Rain = 0
KLES 090145Z 18004KT 07/06 A3032 RMK A01 T00690056  RH  094%=      5-min Rain = 0
KLES 090150Z 17004KT 07/06 A3032 RMK A01 T00690057  RH  094%=      5-min Rain = 0
KLES 090155Z 17004KT 07/06 A3032 RMK A01 T00690057  RH  094%=      5-min Rain = 0
KLES 090200Z 18005KT 07/06 A3032 RMK A01 T00690057  RH  094%=      5-min Rain = 0
KLES 090205Z 18004KT 07/06 A3032 RMK A01 T00680056  RH  094%=      5-min Rain = 0
KLES 090210Z 18005KT 07/06 A3032 RMK A01 T00680056  RH  095%=      5-min Rain = 0
KLES 090215Z 19005KT 07/06 A3032 RMK A01 T00680056  RH  095%=      5-min Rain = 0
KLES 090220Z 19005KT 07/06 A3032 RMK A01 T00670056  RH  095%=      5-min Rain = 0
KLES 090225Z 18005KT 07/06 A3032 RMK A01 T00670056  RH  095%=      5-min Rain = 0
KLES 090230Z 18005KT 07/06 A3032 RMK A01 T00670056  RH  095%=      5-min Rain = 0
KLES 090235Z 18005KT 07/06 A3032 RMK A01 T00660056  RH  095%=      5-min Rain = 0
KLES 090240Z 18005KT 07/06 A3032 RMK A01 T00660055  RH  095%=      5-min Rain = 0
KLES 090245Z 18004KT 07/05 A3032 RMK A01 T00650054  RH  095%=      5-min Rain = 0
KLES 090250Z 18004KT 06/05 A3032 RMK A01 T00640053  RH  095%=      5-min Rain = 0
KLES 090255Z 19004KT 06/05 A3032 RMK A01 T00630052  RH  095%=      5-min Rain = 0
KLES 090300Z 19004KT 06/05 A3032 RMK A01 T00620052  RH  095%=      5-min Rain = 0
KLES 090305Z 18004KT 06/05 A3032 RMK A01 T00620052  RH  095%=      5-min Rain = 0
KLES 090310Z 18004KT 06/05 A3032 RMK A01 T00610051  RH  095%=      5-min Rain = 0
KLES 090315Z 17004KT 06/05 A3032 RMK A01 T00590050  RH  096%=      5-min Rain = 0
KLES 090320Z 17004KT 06/05 A3032 RMK A01 T00580049  RH  095%=      5-min Rain = 0
KLES 090325Z 16003KT 06/05 A3032 RMK A01 T00570048  RH  096%=      5-min Rain = 0
KLES 090330Z 16004KT 06/05 A3032 RMK A01 T00560047  RH  096%=      5-min Rain = 0
KLES 090335Z 17004KT 06/05 A3032 RMK A01 T00550046  RH  096%=      5-min Rain = 0
KLES 090340Z 17004KT 06/05 A3032 RMK A01 T00550046  RH  096%=      5-min Rain = 0
KLES 090345Z 17004KT 05/05 A3032 RMK A01 T00540045  RH  096%=      5-min Rain = 0
KLES 090350Z 17004KT 05/04 A3032 RMK A01 T00530044  RH  096%=      5-min Rain = 0
KLES 090355Z 18004KT 05/04 A3032 RMK A01 T00520044  RH  096%=      5-min Rain = 0
KLES 090400Z 18004KT 05/04 A3032 RMK A01 T00520043  RH  096%=      5-min Rain = 0
KLES 090405Z 18004KT 05/04 A3032 RMK A01 T00510042  RH  096%=      5-min Rain = 0
KLES 090410Z 18003KT 05/04 A3032 RMK A01 T00500041  RH  096%=      5-min Rain = 0
KLES 090415Z 18003KT 05/04 A3032 RMK A01 T00500042  RH  096%=      5-min Rain = 0
KLES 090420Z 18004KT 05/04 A3032 RMK A01 T00500041  RH  096%=      5-min Rain = 0
KLES 090425Z 19004KT 05/04 A3032 RMK A01 T00500042  RH  097%=      5-min Rain = 0
KLES 090430Z 19004KT 05/04 A3031 RMK A01 T00510043  RH  097%=      5-min Rain = 0
KLES 090435Z 19004KT 05/04 A3032 RMK A01 T00500042  RH  096%=      5-min Rain = 0
KLES 090440Z 19004KT 05/04 A3032 RMK A01 T00490042  RH  097%=      5-min Rain = 0
KLES 090445Z 19004KT 05/04 A3031 RMK A01 T00490041  RH  097%=      5-min Rain = 0
KLES 090450Z 18003KT 05/04 A3032 RMK A01 T00470039  RH  097%=      5-min Rain = 0
KLES 090455Z 16002KT 05/04 A3032 RMK A01 T00460039  RH  097%=      5-min Rain = 0
KLES 090500Z 17003KT 05/04 A3032 RMK A01 T00470040  RH  097%=      5-min Rain = 0
KLES 090505Z 19004KT 05/04 A3032 RMK A01 T00470040  RH  097%=      5-min Rain = 0
KLES 090510Z 20004KT 05/04 A3032 RMK A01 T00470040  RH  097%=      5-min Rain = 0
KLES 090515Z 21004KT 05/04 A3032 RMK A01 T00470040  RH  097%=      5-min Rain = 0
KLES 090520Z 21005KT 05/04 A3032 RMK A01 T00470040  RH  097%=      5-min Rain = 0
KLES 090525Z 21004KT 05/04 A3032 RMK A01 T00460039  RH  097%=      5-min Rain = 0
KLES 090530Z 21004KT 05/04 A3032 RMK A01 T00460040  RH  097%=      5-min Rain = 0
KLES 090535Z 21005KT 05/04 A3032 RMK A01 T00460039  RH  097%=      5-min Rain = 0
KLES 090540Z 21005KT 05/04 A3032 RMK A01 T00460039  RH  097%=      5-min Rain = 0
KLES 090545Z 21005KT 05/04 A3032 RMK A01 T00450039  RH  098%=      5-min Rain = 0
KLES 090550Z 21005KT 05/04 A3032 RMK A01 T00450039  RH  097%=      5-min Rain = 0
KLES 090555Z 21004KT 05/04 A3032 RMK A01 T00450039  RH  098%=      5-min Rain = 0

Page generated in 0.0301 seconds.